Startpagina
METAR-TAF:

METAR-TAF

Vliegvelden :

Victoria Falls, Zimbabwe

breedte: 18-06S, lengte: 025-51E, hoogte: 1061 m

Actueel weer

Dit bericht is 1 uur en het 59 minuten geleden gemaakt, om 09:00 UTC
Wind 14 kt uit het noordoosten, variërend tussen het noorden en het oosten
Temperatuur 20°C
Vochtigheid 43%
Druk 1026 hPa
Zicht 10 km of meer
geen wolken onder 1500 m en geen cumulonimbus

METAR: FVFA 160900Z 05014KT 010V080 CAVOK 20/07 Q1026 NOSIG

Tijdstip: 12:59 (10:59 UTC)


TAF: ontbreekt

Waarnemingen en weersverwachtingen van meer dan 4000 vliegvelden (METAR en TAF).

De beschikbare stations zijn de gele en rode punten op de kaart.

Ga met uw muis naar het station om de naam te zien.

Klik dan om waarnemingen en weersverwachtingen te zien.

kaart wijzigen: klik op de groene knoppen met een zwart kruis om in te zoomen, op de groene knop met een streepje om uit te zoomen of op de groene pijlen voor aangrenzende kaarten.


METAR-TAF: